Time;durP1;ratioP1;P1;durP2;ratioP2;P2;SDS_P1;SDS_P2;PMS_P1;PMS_P2;Temp;Humidity;BMP_temperature;BMP_pressure;BME280_temperature;BME280_humidity;BME280_pressure;Samples;Min_cycle;Max_cycle;Signal;HPM_P1;HPM_P2
2023/03/13 00:01:56;;;;;;;8.17;2.00;;;9.50;99.90;;;;;;5050780;28;20389;-55
2023/03/13 00:04:22;;;;;;;11.90;2.10;;;8.70;32.40;;;;;;5049724;28;20389;-55
2023/03/13 00:06:47;;;;;;;12.57;2.63;;;8.70;1.00;;;;;;5050597;28;20386;-55
2023/03/13 00:09:15;;;;;;;10.80;2.20;;;8.80;1.00;;;;;;5050081;28;20421;-58
2023/03/13 00:11:42;;;;;;;9.50;2.30;;;9.30;1.00;;;;;;5033344;28;20392;-55
2023/03/13 00:14:08;;;;;;;12.23;2.47;;;8.90;1.00;;;;;;5050499;28;20447;-56
2023/03/13 00:16:36;;;;;;;8.70;2.10;;;8.90;1.00;;;;;;5049864;28;20389;-56
2023/03/13 00:19:02;;;;;;;8.70;2.10;;;8.80;1.00;;;;;;5050437;28;20408;-57
2023/03/13 00:21:29;;;;;;;14.33;2.50;;;8.70;1.00;;;;;;5049802;28;20480;-55
2023/03/13 00:23:54;;;;;;;14.63;3.10;;;8.70;6.00;;;;;;5032496;28;20406;-55
2023/03/13 00:26:23;;;;;;;7.63;2.40;;;8.70;99.90;;;;;;5049560;28;20475;-55
2023/03/13 00:28:50;;;;;;;7.00;2.30;;;8.90;99.90;;;;;;5050126;28;20508;-55
2023/03/13 00:31:21;;;;;;;12.47;2.60;;;8.80;99.90;;;;;;5049548;28;20392;-57
2023/03/13 00:33:50;;;;;;;10.85;2.60;;;8.80;99.90;;;;;;5049766;28;20394;-55
2023/03/13 00:36:22;;;;;;;11.05;2.88;;;8.80;99.90;;;;;;5049578;28;20393;-56
2023/03/13 00:38:48;;;;;;;8.88;2.30;;;8.80;99.90;;;;;;5050175;28;20400;-55
2023/03/13 00:41:19;;;;;;;7.45;2.00;;;8.80;99.90;;;;;;5049754;28;20838;-59
2023/03/13 00:43:46;;;;;;;13.05;2.33;;;8.70;99.90;;;;;;5049870;28;20886;-55
2023/03/13 00:46:14;;;;;;;12.02;2.40;;;8.70;1.00;;;;;;5049763;28;20397;-59
2023/03/13 00:48:40;;;;;;;9.93;2.10;;;8.80;99.90;;;;;;5049647;28;20417;-55
2023/03/13 00:51:06;;;;;;;9.90;2.05;;;8.80;1.00;;;;;;5050170;28;20392;-55
2023/03/13 00:53:32;;;;;;;9.65;2.50;;;8.70;1.00;;;;;;5048957;28;20401;-55
2023/03/13 00:56:06;;;;;;;11.65;2.10;;;8.70;1.00;;;;;;5049840;28;20401;-55
2023/03/13 00:58:34;;;;;;;8.70;1.70;;;8.70;1.00;;;;;;5049313;28;20459;-55
2023/03/13 01:01:19;;;;;;;8.98;2.35;;;8.80;1.00;;;;;;5031580;28;20397;-55
2023/03/13 01:03:47;;;;;;;10.00;1.90;;;8.80;1.00;;;;;;5032103;28;20393;-55
2023/03/13 01:06:16;;;;;;;11.05;2.97;;;8.80;1.00;;;;;;5049209;28;20730;-59
2023/03/13 01:08:42;;;;;;;12.10;2.78;;;8.70;1.00;;;;;;5049774;28;20948;-56
2023/03/13 01:11:12;;;;;;;7.28;2.22;;;8.70;1.00;;;;;;5049738;28;20396;-55
2023/03/13 01:13:39;;;;;;;8.00;1.90;;;8.80;1.00;;;;;;5050588;28;20386;-57
2023/03/13 01:16:11;;;;;;;11.93;2.08;;;8.70;1.00;;;;;;5042312;28;20394;-55
2023/03/13 01:18:38;;;;;;;11.85;2.72;;;8.80;1.00;;;;;;5048885;28;20403;-55
2023/03/13 01:21:05;;;;;;;9.65;2.20;;;8.90;1.00;;;;;;5049502;28;20946;-55
2023/03/13 01:23:31;;;;;;;13.18;2.40;;;8.90;99.90;;;;;;5048678;28;20381;-55
2023/03/13 01:25:57;;;;;;;10.40;2.28;;;8.90;99.90;;;;;;5049542;28;20773;-55
2023/03/13 01:28:24;;;;;;;6.90;1.70;;;9.00;99.90;;;;;;5047955;28;20475;-55
2023/03/13 01:30:50;;;;;;;10.05;2.00;;;9.10;34.60;;;;;;5049410;28;20428;-55
2023/03/13 01:33:16;;;;;;;12.00;2.10;;;9.90;1.00;;;;;;5048822;28;20417;-60
2023/03/13 01:35:42;;;;;;;9.50;2.03;;;9.10;1.00;;;;;;5049443;28;20400;-55
2023/03/13 01:38:07;;;;;;;11.40;2.70;;;9.20;1.00;;;;;;5049389;28;20917;-55
2023/03/13 01:40:47;;;;;;;7.93;1.90;;;9.10;1.00;;;;;;5048692;28;20944;-55
2023/03/13 01:43:16;;;;;;;10.00;2.05;;;9.20;1.00;;;;;;5049255;28;20446;-59
2023/03/13 01:45:54;;;;;;;11.98;2.40;;;9.20;1.00;;;;;;5034882;28;20452;-55
2023/03/13 01:48:30;;;;;;;8.85;2.00;;;9.20;1.00;;;;;;5052504;28;20862;-55
2023/03/13 01:51:00;;;;;;;8.45;2.33;;;9.10;1.00;;;;;;5053225;28;20393;-55
2023/03/13 01:53:28;;;;;;;9.23;2.28;;;9.20;1.00;;;;;;5052721;28;20389;-55
2023/03/13 01:55:54;;;;;;;10.85;2.00;;;9.20;1.00;;;;;;5053177;28;20401;-56
2023/03/13 01:58:20;;;;;;;8.60;2.20;;;9.30;1.00;;;;;;5052487;28;20460;-56
2023/03/13 02:00:47;;;;;;;7.63;1.90;;;9.30;1.00;;;;;;5046921;28;20451;-55
2023/03/13 02:03:16;;;;;;;8.65;1.98;;;9.30;1.00;;;;;;5053017;28;20396;-59
2023/03/13 02:05:45;;;;;;;10.57;1.73;;;10.10;1.00;;;;;;5053269;28;20365;-55
2023/03/13 02:08:13;;;;;;;6.90;1.58;;;9.40;1.00;;;;;;5052861;28;20409;-55
2023/03/13 02:10:45;;;;;;;8.57;1.70;;;9.40;99.90;;;;;;5068087;28;20391;-55
2023/03/13 02:13:14;;;;;;;7.70;2.00;;;9.40;1.00;;;;;;5072718;28;20391;-55
2023/03/13 02:15:40;;;;;;;8.00;1.70;;;9.40;99.90;;;;;;5071851;28;20383;-55
2023/03/13 02:18:06;;;;;;;10.07;1.80;;;9.70;1.00;;;;;;5071692;28;20395;-56
2023/03/13 02:20:32;;;;;;;14.55;2.20;;;9.40;99.90;;;;;;5034174;28;20484;-55
2023/03/13 02:23:11;;;;;;;7.33;1.67;;;9.60;99.90;;;;;;5066234;28;20901;-55
2023/03/13 02:25:49;;;;;;;8.63;1.92;;;9.40;99.90;;;;;;5053824;28;20413;-56
2023/03/13 02:28:17;;;;;;;9.02;1.85;;;9.50;99.90;;;;;;5071424;28;20419;-59
2023/03/13 02:30:44;;;;;;;7.32;1.67;;;9.40;99.90;;;;;;5071963;28;20419;-55
2023/03/13 02:33:14;;;;;;;11.90;1.90;;;9.50;1.00;;;;;;5072433;28;20433;-55
2023/03/13 02:35:42;;;;;;;9.82;2.38;;;8.60;99.90;;;;;;5071475;28;20395;-56
2023/03/13 02:38:11;;;;;;;9.50;2.07;;;9.50;1.00;;;;;;5072454;28;20396;-55
2023/03/13 02:40:40;;;;;;;10.68;2.00;;;9.50;99.90;;;;;;5071916;28;20418;-55
2023/03/13 02:43:13;;;;;;;7.97;1.50;;;9.50;1.00;;;;;;5072710;28;20406;-55
2023/03/13 02:45:39;;;;;;;9.88;1.70;;;9.50;99.90;;;;;;5071584;28;20427;-55
2023/03/13 02:48:05;;;;;;;10.20;1.50;;;9.60;99.90;;;;;;5072196;28;20472;-55
2023/03/13 02:50:31;;;;;;;6.15;1.23;;;9.70;99.90;;;;;;5069684;28;20391;-55
2023/03/13 02:53:04;;;;;;;7.38;1.20;;;9.70;99.90;;;;;;5071720;28;20389;-56
2023/03/13 02:55:40;;;;;;;8.03;1.87;;;9.80;99.90;;;;;;5071191;28;20492;-55
2023/03/13 02:58:06;;;;;;;7.75;1.60;;;9.90;99.90;;;;;;5072121;28;20957;-55
2023/03/13 03:00:31;;;;;;;8.02;1.20;;;10.00;99.90;;;;;;5070731;28;20427;-55
2023/03/13 03:02:57;;;;;;;8.10;1.38;;;10.00;99.90;;;;;;5071700;28;20433;-56
2023/03/13 03:05:23;;;;;;;7.43;1.27;;;10.00;99.90;;;;;;5071005;28;20392;-56
2023/03/13 03:07:50;;;;;;;5.78;1.35;;;10.10;99.90;;;;;;5071397;28;20872;-56
2023/03/13 03:10:16;;;;;;;5.60;1.20;;;10.10;99.90;;;;;;5071355;28;20917;-59
2023/03/13 03:12:42;;;;;;;5.97;1.40;;;10.20;99.90;;;;;;5071081;28;20399;-55
2023/03/13 03:15:08;;;;;;;5.80;1.10;;;10.30;99.90;;;;;;5071222;28;20733;-55
2023/03/13 03:17:34;;;;;;;5.60;1.00;;;10.40;99.90;;;;;;5070616;28;20522;-55
2023/03/13 03:20:00;;;;;;;6.07;0.97;;;10.50;99.90;;;;;;5071616;28;20478;-56
2023/03/13 03:22:25;;;;;;;6.43;0.73;;;10.40;99.90;;;;;;5070216;28;20387;-55
2023/03/13 03:24:51;;;;;;;5.67;1.07;;;10.40;99.90;;;;;;5071251;28;20392;-56
2023/03/13 03:27:17;;;;;;;4.70;0.70;;;10.50;99.90;;;;;;5071192;28;20414;-60
2023/03/13 03:29:42;;;;;;;6.50;0.87;;;10.60;99.90;;;;;;5070705;28;20411;-56
2023/03/13 03:32:09;;;;;;;7.00;1.20;;;10.60;99.90;;;;;;5071372;28;20422;-56
2023/03/13 03:34:34;;;;;;;9.60;1.52;;;10.80;99.90;;;;;;5070294;28;20407;-56
2023/03/13 03:37:00;;;;;;;5.13;0.97;;;10.80;99.90;;;;;;5071179;28;20406;-56
2023/03/13 03:39:26;;;;;;;5.88;1.08;;;10.80;99.90;;;;;;5070303;28;20388;-55
2023/03/13 03:41:51;;;;;;;5.60;0.80;;;10.90;99.90;;;;;;5070801;28;20388;-57
2023/03/13 03:44:17;;;;;;;6.40;1.10;;;11.00;99.90;;;;;;5071145;28;20383;-60
2023/03/13 03:46:42;;;;;;;6.63;0.83;;;10.50;99.90;;;;;;5069945;28;20403;-56
2023/03/13 03:49:08;;;;;;;5.73;0.90;;;10.90;99.90;;;;;;5064416;28;20511;-55
2023/03/13 03:51:34;;;;;;;5.60;0.70;;;10.90;99.90;;;;;;5050057;28;21065;-55
2023/03/13 03:53:59;;;;;;;7.93;1.40;;;10.90;99.90;;;;;;5050969;28;20425;-56
2023/03/13 03:56:25;;;;;;;5.00;1.10;;;10.80;99.90;;;;;;5057961;28;20873;-56
2023/03/13 03:58:51;;;;;;;6.27;0.90;;;10.80;99.90;;;;;;5070448;28;20403;-56
2023/03/13 04:01:16;;;;;;;6.60;0.90;;;10.80;99.90;;;;;;5069661;28;20421;-60
2023/03/13 04:03:43;;;;;;;5.00;0.80;;;10.80;99.90;;;;;;5069803;28;20392;-56
2023/03/13 04:06:09;;;;;;;5.50;1.00;;;11.00;99.90;;;;;;5070324;28;20406;-56
2023/03/13 04:08:35;;;;;;;7.10;0.90;;;11.00;99.90;;;;;;5068609;28;20893;-55
2023/03/13 04:11:01;;;;;;;5.60;1.02;;;11.10;99.90;;;;;;5070155;28;20391;-55
2023/03/13 04:13:27;;;;;;;4.90;0.90;;;11.00;99.90;;;;;;5069937;28;20453;-56
2023/03/13 04:15:53;;;;;;;7.32;1.00;;;11.00;99.90;;;;;;5056188;28;20442;-56
2023/03/13 04:18:18;;;;;;;4.90;1.00;;;11.00;99.90;;;;;;5049914;28;20892;-60
2023/03/13 04:20:44;;;;;;;4.80;0.70;;;11.10;99.90;;;;;;5050742;28;20386;-56
2023/03/13 04:23:10;;;;;;;5.70;0.60;;;11.20;99.90;;;;;;5050854;28;20455;-56
2023/03/13 04:25:36;;;;;;;4.20;0.60;;;11.30;1.00;;;;;;5049468;28;20607;-56
2023/03/13 04:28:02;;;;;;;7.30;0.60;;;11.30;99.90;;;;;;5050229;28;20440;-57
2023/03/13 04:30:27;;;;;;;5.00;0.77;;;11.40;1.00;;;;;;5050146;28;20746;-56
2023/03/13 04:32:53;;;;;;;5.20;1.00;;;11.50;1.00;;;;;;5051151;28;20476;-56
2023/03/13 04:35:18;;;;;;;5.30;0.60;;;11.60;1.00;;;;;;5049982;28;20393;-60
2023/03/13 04:37:44;;;;;;;5.53;1.00;;;11.60;99.90;;;;;;5050870;28;20400;-55
2023/03/13 04:40:11;;;;;;;5.35;0.70;;;11.70;99.90;;;;;;5050233;28;20378;-55
2023/03/13 04:42:37;;;;;;;4.38;0.70;;;11.80;99.90;;;;;;5034842;28;21001;-55
2023/03/13 04:45:03;;;;;;;4.10;0.55;;;12.80;1.00;;;;;;5049907;28;20392;-55
2023/03/13 04:47:29;;;;;;;4.70;0.60;;;11.70;1.00;;;;;;5049027;28;20397;-55
2023/03/13 04:49:54;;;;;;;4.28;0.50;;;11.80;1.00;;;;;;5032102;28;20413;-56
2023/03/13 04:52:21;;;;;;;4.17;0.53;;;11.70;17.80;;;;;;5038091;28;20875;-60
2023/03/13 04:54:46;;;;;;;3.90;0.40;;;11.70;99.90;;;;;;5049789;28;20397;-55
2023/03/13 04:57:12;;;;;;;3.90;0.60;;;11.80;99.90;;;;;;5068443;28;20414;-56
2023/03/13 04:59:37;;;;;;;4.40;0.53;;;11.80;99.90;;;;;;5068665;28;20392;-55
2023/03/13 05:02:03;;;;;;;4.00;0.50;;;11.90;99.90;;;;;;5069024;28;20411;-55
2023/03/13 05:04:28;;;;;;;4.78;0.50;;;11.90;27.10;;;;;;5068864;28;20400;-55
2023/03/13 05:06:54;;;;;;;4.80;0.60;;;11.90;99.90;;;;;;5069531;28;20396;-55
2023/03/13 05:09:20;;;;;;;4.60;0.50;;;11.80;99.90;;;;;;5068195;28;20510;-60
2023/03/13 05:11:46;;;;;;;4.07;0.50;;;11.90;16.70;;;;;;5069182;28;20380;-57
2023/03/13 05:14:12;;;;;;;4.03;0.52;;;11.90;99.90;;;;;;5069409;28;20395;-55
2023/03/13 05:16:38;;;;;;;4.60;0.70;;;11.90;99.90;;;;;;5056948;28;20920;-55
2023/03/13 05:19:04;;;;;;;4.40;0.50;;;12.00;40.20;;;;;;5067404;28;20388;-55
2023/03/13 05:21:29;;;;;;;7.00;0.80;;;12.00;99.90;;;;;;5055639;28;20458;-57
2023/03/13 05:23:55;;;;;;;4.80;0.60;;;12.00;1.00;;;;;;5056694;28;20845;-55
2023/03/13 05:26:20;;;;;;;4.10;0.60;;;11.90;99.90;;;;;;5045351;28;20433;-56
2023/03/13 05:28:46;;;;;;;4.20;0.70;;;12.00;99.90;;;;;;5069006;28;20427;-55
2023/03/13 05:31:13;;;;;;;4.00;0.60;;;12.10;1.00;;;;;;5044919;28;20530;-55
2023/03/13 05:33:39;;;;;;;4.10;0.60;;;12.00;1.00;;;;;;5045390;28;20437;-55
2023/03/13 05:36:05;;;;;;;4.50;0.80;;;12.10;99.90;;;;;;5037874;28;20410;-58
2023/03/13 05:38:30;;;;;;;5.07;0.60;;;12.10;99.90;;;;;;5044868;28;20402;-55
2023/03/13 05:40:56;;;;;;;4.55;0.50;;;12.10;99.90;;;;;;5042771;28;20407;-57
2023/03/13 05:43:21;;;;;;;4.80;0.60;;;12.20;41.10;;;;;;5046044;28;21016;-61
2023/03/13 05:45:47;;;;;;;4.30;0.57;;;12.20;84.30;;;;;;5047354;28;20421;-57
2023/03/13 05:48:13;;;;;;;6.10;0.60;;;12.30;1.00;;;;;;5029281;28;20415;-58
2023/03/13 05:50:38;;;;;;;4.30;0.60;;;12.20;1.00;;;;;;5028595;28;20403;-57
2023/03/13 05:53:04;;;;;;;4.80;0.40;;;12.20;1.00;;;;;;5039669;28;20444;-58
2023/03/13 05:55:29;;;;;;;4.57;0.60;;;12.30;1.00;;;;;;5044468;28;20406;-58
2023/03/13 05:57:55;;;;;;;3.90;0.40;;;12.30;1.00;;;;;;5031980;28;20919;-57
2023/03/13 06:00:21;;;;;;;4.30;0.70;;;12.30;1.00;;;;;;5052071;28;20436;-60
2023/03/13 06:02:47;;;;;;;4.73;0.50;;;12.30;1.00;;;;;;5048109;28;20401;-57
2023/03/13 06:05:12;;;;;;;4.00;0.40;;;12.30;1.00;;;;;;5038576;28;20934;-57
2023/03/13 06:07:38;;;;;;;4.00;0.40;;;12.30;1.00;;;;;;5041609;28;20473;-56
2023/03/13 06:10:04;;;;;;;3.80;0.40;;;12.40;99.90;;;;;;5052260;28;20501;-57
2023/03/13 06:12:30;;;;;;;4.93;0.40;;;12.30;1.00;;;;;;5052680;28;20399;-57
2023/03/13 06:14:55;;;;;;;4.88;0.70;;;12.50;1.00;;;;;;5050249;28;20843;-57
2023/03/13 06:17:21;;;;;;;3.90;0.30;;;12.40;1.00;;;;;;5047094;28;20421;-61
2023/03/13 06:19:47;;;;;;;4.30;0.53;;;12.50;99.90;;;;;;5055115;28;20412;-57
2023/03/13 06:22:12;;;;;;;4.63;0.60;;;12.40;99.90;;;;;;5066825;28;20770;-57
2023/03/13 06:24:38;;;;;;;4.45;0.50;;;12.60;99.90;;;;;;5053595;28;20397;-56
2023/03/13 06:27:04;;;;;;;4.23;0.60;;;12.50;99.90;;;;;;5066089;28;20399;-57
2023/03/13 06:29:29;;;;;;;6.70;0.90;;;12.50;99.90;;;;;;5059617;28;20419;-57
2023/03/13 06:31:55;;;;;;;4.10;0.50;;;12.60;99.90;;;;;;5059376;28;20535;-57
2023/03/13 06:34:20;;;;;;;4.10;0.60;;;12.60;99.90;;;;;;5058033;28;20877;-60
2023/03/13 06:36:46;;;;;;;3.90;0.40;;;12.60;99.90;;;;;;5059349;28;20536;-57
2023/03/13 06:39:12;;;;;;;3.90;0.40;;;12.70;99.90;;;;;;5053665;28;20403;-57
2023/03/13 06:41:37;;;;;;;5.00;0.40;;;12.60;99.90;;;;;;5058863;28;20394;-56
2023/03/13 06:44:04;;;;;;;4.57;0.50;;;12.70;99.90;;;;;;5059320;28;20397;-56
2023/03/13 06:46:30;;;;;;;4.20;0.40;;;12.70;99.90;;;;;;5053946;28;20419;-57
2023/03/13 06:48:57;;;;;;;4.73;0.63;;;12.70;1.00;;;;;;5052286;28;20405;-57
2023/03/13 06:51:25;;;;;;;4.00;0.40;;;12.70;1.00;;;;;;5051747;28;20424;-60
2023/03/13 06:53:51;;;;;;;4.70;0.40;;;12.70;1.00;;;;;;5052209;28;20409;-57
2023/03/13 06:56:17;;;;;;;4.40;0.90;;;12.80;99.90;;;;;;5052135;28;20757;-57
2023/03/13 06:58:46;;;;;;;5.10;0.40;;;12.70;99.90;;;;;;5051201;28;20786;-57
2023/03/13 07:01:14;;;;;;;3.90;0.40;;;12.70;1.00;;;;;;5052139;28;20389;-56
2023/03/13 07:03:42;;;;;;;5.35;0.70;;;12.70;99.90;;;;;;5048280;28;20463;-56
2023/03/13 07:06:10;;;;;;;4.30;0.60;;;12.80;1.00;;;;;;5048276;28;20440;-57
2023/03/13 07:08:36;;;;;;;4.00;0.40;;;12.80;1.00;;;;;;5051510;28;20453;-57
2023/03/13 07:11:05;;;;;;;4.40;0.60;;;12.80;1.00;;;;;;5051733;28;20417;-56
2023/03/13 07:13:31;;;;;;;4.32;0.47;;;12.80;1.00;;;;;;5051300;28;20464;-59
2023/03/13 07:16:03;;;;;;;4.10;0.50;;;12.90;1.00;;;;;;5052131;28;20423;-56
2023/03/13 07:18:29;;;;;;;4.40;0.50;;;12.90;1.00;;;;;;5051013;28;20393;-57
2023/03/13 07:20:56;;;;;;;4.40;0.50;;;12.90;1.00;;;;;;5051531;28;20748;-57
2023/03/13 07:23:24;;;;;;;4.40;0.40;;;12.90;1.00;;;;;;5050899;28;20386;-61
2023/03/13 07:25:58;;;;;;;4.55;0.65;;;12.80;1.00;;;;;;5033658;28;20751;-57
2023/03/13 07:28:25;;;;;;;4.10;0.50;;;12.90;1.00;;;;;;5050187;28;20436;-59
2023/03/13 07:30:51;;;;;;;4.15;0.40;;;12.90;1.00;;;;;;5051495;28;20385;-57
2023/03/13 07:33:17;;;;;;;5.20;0.60;;;13.00;1.00;;;;;;5051636;28;20389;-57
2023/03/13 07:35:48;;;;;;;4.30;0.60;;;13.00;1.00;;;;;;5050759;28;20406;-57
2023/03/13 07:38:13;;;;;;;4.40;0.40;;;13.00;1.00;;;;;;5051465;28;20404;-58
2023/03/13 07:40:39;;;;;;;4.43;0.70;;;13.10;1.00;;;;;;5050696;28;20381;-56
2023/03/13 07:43:04;;;;;;;4.00;0.50;;;13.20;1.00;;;;;;5051234;28;20397;-55
2023/03/13 07:45:30;;;;;;;5.28;0.40;;;13.10;1.00;;;;;;5050886;28;20468;-55
2023/03/13 07:47:56;;;;;;;6.80;0.70;;;13.20;1.00;;;;;;5051354;28;20862;-56
2023/03/13 07:50:21;;;;;;;3.90;0.40;;;13.20;1.00;;;;;;5050350;28;20700;-59
2023/03/13 07:52:47;;;;;;;5.35;0.40;;;13.20;1.00;;;;;;5051393;28;20386;-55
2023/03/13 07:55:12;;;;;;;4.10;0.40;;;13.20;1.00;;;;;;5051058;28;20436;-56
2023/03/13 07:57:38;;;;;;;4.00;0.40;;;13.10;1.00;;;;;;5050105;28;20390;-57
2023/03/13 08:00:08;;;;;;;4.45;0.50;;;13.10;1.00;;;;;;5049880;28;20873;-56
2023/03/13 08:02:34;;;;;;;6.50;0.70;;;13.30;1.00;;;;;;5050511;28;20481;-56
2023/03/13 08:05:01;;;;;;;4.10;0.40;;;13.30;1.00;;;;;;5050953;28;20428;-56
2023/03/13 08:07:26;;;;;;;4.00;0.40;;;13.40;1.00;;;;;;5050156;28;20390;-56
2023/03/13 08:09:52;;;;;;;4.07;0.50;;;13.50;99.90;;;;;;5051040;28;20428;-56
2023/03/13 08:12:18;;;;;;;4.18;0.47;;;13.60;99.90;;;;;;5050576;28;20464;-56
2023/03/13 08:14:43;;;;;;;4.20;0.50;;;13.70;89.20;;;;;;5050197;28;20423;-56
2023/03/13 08:17:10;;;;;;;4.10;0.50;;;13.70;99.90;;;;;;5050891;28;20457;-56
2023/03/13 08:19:37;;;;;;;4.07;0.40;;;13.80;36.20;;;;;;5050004;28;20962;-56
2023/03/13 08:22:02;;;;;;;4.35;0.50;;;13.90;1.00;;;;;;5050696;28;20386;-59
2023/03/13 08:24:28;;;;;;;4.47;0.70;;;14.00;1.00;;;;;;5050314;28;20408;-56
2023/03/13 08:26:53;;;;;;;4.00;0.40;;;14.30;1.00;;;;;;5050157;28;20396;-56
2023/03/13 08:29:19;;;;;;;4.90;0.90;;;14.40;1.00;;;;;;5051013;28;20828;-56
2023/03/13 08:31:47;;;;;;;5.20;0.60;;;14.40;1.00;;;;;;5049660;28;20479;-56
2023/03/13 08:34:14;;;;;;;5.63;0.60;;;14.60;1.00;;;;;;5050405;28;20421;-56
2023/03/13 08:36:40;;;;;;;4.72;0.60;;;14.50;99.90;;;;;;5049368;28;21212;-56
2023/03/13 08:39:13;;;;;;;4.80;0.50;;;14.80;99.90;;;;;;5050419;28;20396;-56
2023/03/13 08:41:41;;;;;;;4.30;0.50;;;14.90;99.90;;;;;;5049498;28;20377;-57
2023/03/13 08:44:10;;;;;;;4.50;0.60;;;15.00;99.90;;;;;;5050361;28;20388;-56
2023/03/13 08:46:36;;;;;;;4.40;0.70;;;15.10;99.90;;;;;;5049286;28;20950;-56
2023/03/13 08:49:04;;;;;;;4.33;0.53;;;15.30;99.90;;;;;;5050102;28;20889;-56
2023/03/13 08:51:29;;;;;;;4.90;0.60;;;15.00;99.90;;;;;;5049101;28;20385;-57
2023/03/13 08:53:55;;;;;;;4.20;0.50;;;15.10;99.90;;;;;;5049784;28;20429;-56
2023/03/13 08:56:23;;;;;;;4.50;0.80;;;14.80;99.90;;;;;;5049432;28;20550;-59
2023/03/13 08:58:55;;;;;;;4.40;0.70;;;14.90;99.90;;;;;;5049831;28;20392;-56
2023/03/13 09:01:23;;;;;;;5.10;0.50;;;14.60;99.90;;;;;;5032172;28;20538;-56
2023/03/13 09:03:49;;;;;;;5.60;0.80;;;14.70;99.90;;;;;;5049392;28;20385;-56
2023/03/13 09:06:15;;;;;;;4.30;0.50;;;14.80;99.90;;;;;;5049872;28;20389;-56
2023/03/13 09:08:41;;;;;;;6.90;0.88;;;14.70;99.90;;;;;;5048632;28;20498;-56
2023/03/13 09:11:10;;;;;;;4.85;0.60;;;14.80;99.90;;;;;;5049721;28;20377;-55
2023/03/13 09:13:40;;;;;;;4.10;0.50;;;14.70;99.90;;;;;;5048866;28;20393;-55
2023/03/13 09:16:11;;;;;;;4.50;0.80;;;14.80;99.90;;;;;;5049963;28;20492;-56
2023/03/13 09:18:37;;;;;;;4.70;0.90;;;14.90;99.90;;;;;;5049052;28;20873;-55
2023/03/13 09:21:06;;;;;;;4.38;0.70;;;15.00;99.90;;;;;;5049629;28;20464;-56
2023/03/13 09:23:32;;;;;;;5.20;0.68;;;15.20;99.90;;;;;;5048726;28;20481;-55
2023/03/13 09:25:57;;;;;;;4.30;0.60;;;15.30;99.90;;;;;;5049624;28;20468;-56
2023/03/13 09:28:24;;;;;;;5.50;0.90;;;15.30;99.90;;;;;;5048843;28;20976;-60
2023/03/13 09:30:51;;;;;;;4.93;0.95;;;15.50;99.90;;;;;;5049722;28;20400;-56
2023/03/13 09:33:17;;;;;;;5.47;1.30;;;15.80;99.90;;;;;;5049457;28;20390;-56
2023/03/13 09:35:49;;;;;;;6.35;1.23;;;15.90;99.90;;;;;;5048923;28;20454;-56
2023/03/13 09:38:16;;;;;;;5.97;1.10;;;15.90;99.90;;;;;;5049332;28;20385;-56
2023/03/13 09:40:46;;;;;;;4.50;0.73;;;16.10;95.90;;;;;;5048912;28;20385;-56
2023/03/13 09:43:39;;;;;;;7.25;1.20;;;15.90;1.00;;;;;;5049857;28;20377;-56
2023/03/13 09:46:12;;;;;;;4.60;0.90;;;15.90;1.00;;;;;;5049499;28;20555;-56
2023/03/13 09:48:51;;;;;;;5.53;1.05;;;15.90;1.00;;;;;;5048493;28;20446;-57
2023/03/13 09:51:46;;;;;;;4.97;0.90;;;16.10;1.00;;;;;;5049369;28;20858;-56
2023/03/13 09:54:12;;;;;;;5.30;1.13;;;16.70;1.00;;;;;;5049394;28;20392;-56
2023/03/13 09:56:53;;;;;;;5.10;1.20;;;17.10;1.00;;;;;;5048628;28;20385;-57
2023/03/13 09:59:47;;;;;;;6.35;1.10;;;17.10;1.00;;;;;;5049458;28;20551;-56
2023/03/13 10:02:28;;;;;;;5.82;1.42;;;17.20;1.00;;;;;;5049381;28;20390;-56
2023/03/13 10:05:15;;;;;;;5.30;1.40;;;17.60;1.00;;;;;;5049986;28;20437;-56
2023/03/13 10:07:41;;;;;;;5.90;1.35;;;17.70;1.00;;;;;;5052542;28;20420;-56
2023/03/13 10:10:27;;;;;;;6.07;1.80;;;17.60;1.00;;;;;;5053038;28;20437;-56
2023/03/13 10:12:57;;;;;;;5.40;1.90;;;;;;;;;;5052782;28;20461;-56
2023/03/13 10:15:47;;;;;;;5.82;2.33;;;19.00;1.00;;;;;;5052803;28;20377;-60
2023/03/13 10:18:19;;;;;;;5.90;1.85;;;18.50;1.00;;;;;;5052863;28;20574;-59
2023/03/13 10:20:48;;;;;;;7.03;2.40;;;18.60;1.00;;;;;;5051950;28;20379;-56
2023/03/13 10:23:20;;;;;;;6.72;2.95;;;19.20;1.00;;;;;;5052853;28;20905;-57
2023/03/13 10:25:46;;;;;;;7.20;3.00;;;19.10;1.00;;;;;;5051978;28;20386;-58
2023/03/13 10:28:15;;;;;;;6.20;3.20;;;19.30;1.00;;;;;;5052792;28;20425;-55
2023/03/13 10:30:48;;;;;;;5.30;2.70;;;19.00;1.00;;;;;;5052074;28;20377;-55
2023/03/13 10:33:24;;;;;;;8.18;2.20;;;18.40;1.00;;;;;;5052695;28;20466;-57
2023/03/13 10:36:03;;;;;;;11.75;4.90;;;17.70;1.00;;;;;;5052125;28;20373;-55
2023/03/13 10:38:33;;;;;;;6.30;2.00;;;17.50;1.00;;;;;;5051737;28;20386;-55
2023/03/13 10:41:17;;;;;;;7.40;1.58;;;17.60;1.00;;;;;;5052741;28;20369;-55
2023/03/13 10:43:52;;;;;;;6.80;1.10;;;17.50;1.00;;;;;;5051844;28;20377;-55
2023/03/13 10:46:30;;;;;;;5.40;1.50;;;17.40;1.00;;;;;;5052642;28;20382;-55
2023/03/13 10:49:00;;;;;;;5.40;1.30;;;16.90;1.00;;;;;;5052498;28;20883;-55
2023/03/13 10:51:37;;;;;;;5.38;1.20;;;17.00;1.00;;;;;;5051964;28;20389;-60
2023/03/13 10:54:24;;;;;;;5.40;1.00;;;17.30;1.00;;;;;;5052311;28;20389;-56
2023/03/13 10:56:54;;;;;;;5.70;1.10;;;17.80;1.00;;;;;;5051781;28;20369;-55
2023/03/13 10:59:25;;;;;;;5.63;1.30;;;18.10;1.00;;;;;;5052069;28;20754;-56
2023/03/13 11:01:53;;;;;;;5.85;1.40;;;18.30;1.00;;;;;;5052283;28;20381;-55
2023/03/13 11:04:33;;;;;;;6.88;1.50;;;18.50;1.00;;;;;;5052114;28;20389;-55
2023/03/13 11:07:35;;;;;;;6.97;1.80;;;18.60;1.00;;;;;;5052296;28;20472;-55
2023/03/13 11:10:12;;;;;;;5.85;1.73;;;18.60;1.00;;;;;;5051714;28;20421;-55
2023/03/13 11:12:47;;;;;;;6.50;1.50;;;18.70;1.00;;;;;;5051207;28;20390;-56
2023/03/13 11:15:17;;;;;;;5.00;1.30;;;18.10;1.00;;;;;;5052166;28;20389;-56
2023/03/13 11:17:47;;;;;;;7.55;1.55;;;17.80;1.00;;;;;;5050476;28;20381;-56
2023/03/13 11:20:33;;;;;;;5.65;1.40;;;18.30;1.00;;;;;;5052114;28;20386;-55
2023/03/13 11:23:34;;;;;;;7.60;2.10;;;18.80;1.00;;;;;;5051943;28;20866;-56
2023/03/13 11:26:46;;;;;;;5.70;3.45;;;19.60;1.00;;;;;;5046456;28;20464;-56
2023/03/13 11:29:17;;;;;;;7.60;3.70;;;20.50;1.00;;;;;;5033735;28;20426;-56
2023/03/13 11:32:18;;;;;;;8.02;4.18;;;20.90;1.00;;;;;;5050673;28;20377;-56
2023/03/13 11:34:57;;;;;;;7.22;4.18;;;20.90;1.00;;;;;;5033850;28;20413;-55
2023/03/13 11:37:27;;;;;;;6.90;3.80;;;20.00;1.00;;;;;;5051641;28;20480;-56
2023/03/13 11:39:59;;;;;;;7.80;3.20;;;19.90;1.00;;;;;;5051211;28;20436;-56
2023/03/13 11:42:58;;;;;;;6.43;3.35;;;20.20;1.00;;;;;;5051161;28;20382;-60
2023/03/13 11:46:05;;;;;;;7.23;3.40;;;20.00;1.00;;;;;;5051000;28;20381;-56
2023/03/13 11:48:52;;;;;;;5.57;2.60;;;20.20;1.00;;;;;;5037059;28;20790;-56
2023/03/13 11:51:23;;;;;;;5.50;2.70;;;20.40;1.00;;;;;;5051242;28;20385;-56
2023/03/13 11:54:13;;;;;;;5.70;2.80;;;20.40;1.00;;;;;;5050486;28;20392;-56
2023/03/13 11:56:43;;;;;;;6.03;3.05;;;20.50;1.00;;;;;;5050412;28;20450;-56
2023/03/13 11:59:27;;;;;;;6.65;3.50;;;20.50;1.00;;;;;;5050574;28;20759;-56
2023/03/13 12:01:58;;;;;;;6.15;3.40;;;20.70;1.00;;;;;;5050577;28;20435;-56
2023/03/13 12:04:32;;;;;;;6.50;3.20;;;20.40;1.00;;;;;;5050603;28;20381;-61
2023/03/13 12:07:11;;;;;;;7.07;2.80;;;21.50;1.00;;;;;;5050134;28;20389;-59
2023/03/13 12:09:43;;;;;;;5.82;3.13;;;20.80;1.00;;;;;;5049522;28;20458;-60
2023/03/13 12:12:47;;;;;;;5.75;3.42;;;20.90;1.00;;;;;;5050304;28;20392;-59
2023/03/13 12:15:26;;;;;;;6.18;3.88;;;20.90;1.00;;;;;;5050466;28;20392;-59
2023/03/13 12:18:21;;;;;;;7.20;4.05;;;21.10;1.00;;;;;;5051045;28;20747;-56
2023/03/13 12:20:54;;;;;;;6.20;3.60;;;20.70;1.00;;;;;;5028027;28;20386;-58
2023/03/13 12:23:42;;;;;;;7.90;3.50;;;20.60;1.00;;;;;;5050722;28;20373;-58
2023/03/13 12:26:19;;;;;;;7.43;3.75;;;20.60;1.00;;;;;;5050766;28;20386;-58
2023/03/13 12:28:59;;;;;;;6.30;3.70;;;20.80;1.00;;;;;;5048538;28;20487;-58
2023/03/13 12:31:51;;;;;;;6.10;3.70;;;20.60;1.00;;;;;;5050539;28;20382;-62
2023/03/13 12:34:50;;;;;;;6.38;3.70;;;20.70;1.00;;;;;;5048745;28;20732;-58
2023/03/13 12:37:36;;;;;;;7.73;3.80;;;20.60;1.00;;;;;;5050406;28;20390;-59
2023/03/13 12:40:30;;;;;;;5.70;3.20;;;20.40;1.00;;;;;;5050428;28;20394;-58
2023/03/13 12:43:04;;;;;;;6.43;3.72;;;21.00;1.00;;;;;;5049819;28;20381;-58
2023/03/13 12:45:32;;;;;;;6.50;4.20;;;21.20;1.00;;;;;;5049249;28;20801;-59
2023/03/13 12:48:22;;;;;;;6.55;4.45;;;21.20;1.00;;;;;;5050330;28;20378;-58
2023/03/13 12:50:47;;;;;;;8.73;5.13;;;21.20;1.00;;;;;;5049492;28;20457;-58
2023/03/13 12:53:34;;;;;;;6.40;5.20;;;21.50;1.00;;;;;;5050306;28;20874;-58
2023/03/13 12:56:09;;;;;;;7.20;6.50;;;21.60;1.00;;;;;;5049740;28;20385;-56
2023/03/13 12:58:54;;;;;;;6.60;5.55;;;21.60;1.00;;;;;;5049343;28;21223;-56
2023/03/13 13:01:33;;;;;;;6.80;5.63;;;21.40;1.00;;;;;;5049880;28;20489;-57
2023/03/13 13:04:03;;;;;;;6.30;4.90;;;21.40;1.00;;;;;;5049840;28;20388;-56
2023/03/13 13:07:01;;;;;;;7.07;4.50;;;21.20;1.00;;;;;;5049454;28;20377;-61
2023/03/13 13:09:34;;;;;;;7.00;4.60;;;21.30;1.00;;;;;;5049235;28;20897;-60
2023/03/13 13:12:21;;;;;;;6.80;4.90;;;21.50;1.00;;;;;;5049669;28;20868;-57